PWSweather.com
Personal Weather Stations
Station Observations

OlomoucCZ

Lat: 49.5936202181, Lon: 17.2276005149

Elevation: 752

Station Type: Davis Vantage Pro 2 Activ

http://infopocasi-olomouc.cz

High Low Average
Temperature 26.5°F-3.1°C 14.8°F-9.6°C 21.5°F-5.8°C
Dew Point 23.8°F-4.6°C 13.4°F-10.3°C 19.4°F-7.0°C
Winds 8.1 mph 13.0 kmh Calm Calm 2.0 mph WSW3.2 kmh WSW
Wind Gusts 11.5 mph18.5 kmh -- 4.0 mph6.4 kmh
Humidity 96% 86% 92%
Pressure 29.76 in1007.8 mb 29.61 in1002.7 mb -
Precipitation 0.00 in0.0 mm - -
Hour Temp Dew Point Humidity Winds Wind Gusts Pressure Precip Precip Rate Daily Precip Total
12:00 AM 19.8°F-6.8°C 18.6°F-7.4°C 95% 1.2 mph SW1.9 kmh SW 2.3 mph3.7 kmh 29.76 in1007.8 mb - 0.00 in0.0 mm 0.00 in0.0 mm
12:30 AM 19.3°F-7.1°C 18.1°F-7.7°C 95% Calm Calm -- 29.75 in1007.5 mb - 0.00 in0.0 mm 0.00 in0.0 mm
01:00 AM 19.5°F-6.9°C 18.3°F-7.6°C 95% 1.2 mph NW1.9 kmh NW 2.3 mph3.7 kmh 29.74 in1007.1 mb - 0.00 in0.0 mm 0.00 in0.0 mm
01:30 AM 19.0°F-7.2°C 17.8°F-7.9°C 95% Calm Calm 1.2 mph1.9 kmh 29.73 in1006.8 mb - 0.00 in0.0 mm 0.00 in0.0 mm
02:00 AM 19.0°F-7.2°C 17.8°F-7.9°C 95% Calm Calm 1.2 mph1.9 kmh 29.73 in1006.8 mb - 0.00 in0.0 mm 0.00 in0.0 mm
02:30 AM 18.6°F-7.4°C 17.4°F-8.1°C 95% Calm Calm 1.2 mph1.9 kmh 29.72 in1006.4 mb - 0.00 in0.0 mm 0.00 in0.0 mm
03:00 AM 18.3°F-7.6°C 17.1°F-8.3°C 95% 1.2 mph N1.9 kmh N 1.2 mph1.9 kmh 29.71 in1006.1 mb - 0.00 in0.0 mm 0.00 in0.0 mm
03:30 AM 17.8°F-7.9°C 16.6°F-8.6°C 95% 1.2 mph NNW1.9 kmh NNW 2.3 mph3.7 kmh 29.70 in1005.8 mb - 0.00 in0.0 mm 0.00 in0.0 mm
04:00 AM 17.4°F-8.1°C 16.2°F-8.8°C 95% Calm Calm 1.2 mph1.9 kmh 29.68 in1005.1 mb - 0.00 in0.0 mm 0.00 in0.0 mm
04:30 AM 16.8°F-8.4°C 15.6°F-9.1°C 95% Calm Calm -- 29.68 in1005.1 mb - 0.00 in0.0 mm 0.00 in0.0 mm
05:00 AM 16.8°F-8.4°C 15.4°F-9.2°C 94% Calm Calm 1.2 mph1.9 kmh 29.68 in1005.1 mb - 0.00 in0.0 mm 0.00 in0.0 mm
05:30 AM 16.8°F-8.4°C 15.6°F-9.1°C 95% 1.2 mph NNW1.9 kmh NNW 2.3 mph3.7 kmh 29.68 in1005.1 mb - 0.00 in0.0 mm 0.00 in0.0 mm
06:00 AM 16.2°F-8.8°C 14.8°F-9.6°C 94% Calm Calm -- 29.68 in1005.1 mb - 0.00 in0.0 mm 0.00 in0.0 mm
06:30 AM 15.7°F-9.1°C 14.3°F-9.8°C 94% Calm Calm 1.2 mph1.9 kmh 29.68 in1005.1 mb - 0.00 in0.0 mm 0.00 in0.0 mm
07:00 AM 15.3°F-9.3°C 13.9°F-10.1°C 94% Calm Calm 1.2 mph1.9 kmh 29.67 in1004.7 mb - 0.00 in0.0 mm 0.00 in0.0 mm
07:30 AM 14.8°F-9.6°C 13.4°F-10.3°C 94% Calm Calm 1.2 mph1.9 kmh 29.67 in1004.7 mb - 0.00 in0.0 mm 0.00 in0.0 mm
08:00 AM 14.8°F-9.6°C 13.4°F-10.3°C 94% 1.2 mph W1.9 kmh W 1.2 mph1.9 kmh 29.67 in1004.7 mb - 0.00 in0.0 mm 0.00 in0.0 mm
08:30 AM 15.9°F-8.9°C 14.7°F-9.6°C 95% Calm Calm 1.2 mph1.9 kmh 29.67 in1004.7 mb - 0.00 in0.0 mm 0.00 in0.0 mm
09:00 AM 17.2°F-8.2°C 16.0°F-8.9°C 95% 1.2 mph W1.9 kmh W 2.3 mph3.7 kmh 29.66 in1004.4 mb - 0.00 in0.0 mm 0.00 in0.0 mm
09:30 AM 18.1°F-7.7°C 16.9°F-8.4°C 95% Calm Calm 1.2 mph1.9 kmh 29.66 in1004.4 mb - 0.00 in0.0 mm 0.00 in0.0 mm
10:00 AM 19.0°F-7.2°C 17.8°F-7.9°C 95% Calm Calm 1.2 mph1.9 kmh 29.66 in1004.4 mb - 0.00 in0.0 mm 0.00 in0.0 mm
10:30 AM 19.6°F-6.9°C 18.4°F-7.6°C 95% Calm Calm -- 29.66 in1004.4 mb - 0.00 in0.0 mm 0.00 in0.0 mm
11:00 AM 20.1°F-6.6°C 18.9°F-7.3°C 95% Calm Calm 2.3 mph3.7 kmh 29.66 in1004.4 mb - 0.00 in0.0 mm 0.00 in0.0 mm
11:30 AM 21.1°F-6.1°C 20.1°F-6.6°C 96% 2.3 mph NW3.7 kmh NW 2.3 mph3.7 kmh 29.64 in1003.7 mb - 0.00 in0.0 mm 0.00 in0.0 mm
12:00 PM 21.6°F-5.8°C 20.6°F-6.3°C 96% 2.3 mph WNW3.7 kmh WNW 2.3 mph3.7 kmh 29.63 in1003.4 mb - 0.00 in0.0 mm 0.00 in0.0 mm
12:30 PM 22.8°F-5.1°C 21.8°F-5.7°C 96% 2.3 mph NW3.7 kmh NW 3.5 mph5.6 kmh 29.62 in1003.0 mb - 0.00 in0.0 mm 0.00 in0.0 mm
01:00 PM 23.6°F-4.7°C 22.6°F-5.2°C 96% 2.3 mph NW3.7 kmh NW 3.5 mph5.6 kmh 29.61 in1002.7 mb - 0.00 in0.0 mm 0.00 in0.0 mm
01:30 PM 24.8°F-4.0°C 23.8°F-4.6°C 96% 3.5 mph N5.6 kmh N 8.1 mph13.0 kmh 29.61 in1002.7 mb - 0.00 in0.0 mm 0.00 in0.0 mm
02:00 PM 25.6°F-3.6°C 23.4°F-4.8°C 91% 3.5 mph N5.6 kmh N 4.6 mph7.4 kmh 29.61 in1002.7 mb - 0.00 in0.0 mm 0.00 in0.0 mm
02:30 PM 26.0°F-3.3°C 22.4°F-5.3°C 86% 5.8 mph NE9.3 kmh NE 10.4 mph16.7 kmh 29.61 in1002.7 mb - 0.00 in0.0 mm 0.00 in0.0 mm
03:00 PM 25.6°F-3.6°C 22.0°F-5.6°C 86% 3.5 mph N5.6 kmh N 5.8 mph9.3 kmh 29.61 in1002.7 mb - 0.00 in0.0 mm 0.00 in0.0 mm
03:30 PM 25.2°F-3.8°C 21.6°F-5.8°C 86% 5.8 mph NNE9.3 kmh NNE 8.1 mph13.0 kmh 29.61 in1002.7 mb - 0.00 in0.0 mm 0.00 in0.0 mm
04:00 PM 25.2°F-3.8°C 21.6°F-5.8°C 86% 2.3 mph NNE3.7 kmh NNE 6.9 mph11.1 kmh 29.61 in1002.7 mb - 0.00 in0.0 mm 0.00 in0.0 mm
04:30 PM 25.3°F-3.7°C 21.7°F-5.7°C 86% 3.5 mph N5.6 kmh N 3.5 mph5.6 kmh 29.62 in1003.0 mb - 0.00 in0.0 mm 0.00 in0.0 mm
05:00 PM 25.8°F-3.4°C 22.2°F-5.4°C 86% 3.5 mph N5.6 kmh N 4.6 mph7.4 kmh 29.62 in1003.0 mb - 0.00 in0.0 mm 0.00 in0.0 mm
05:30 PM 26.1°F-3.3°C 22.8°F-5.1°C 87% 2.3 mph N3.7 kmh N 3.5 mph5.6 kmh 29.63 in1003.4 mb - 0.00 in0.0 mm 0.00 in0.0 mm
06:00 PM 26.3°F-3.2°C 22.7°F-5.2°C 86% 4.6 mph NE7.4 kmh NE 8.1 mph13.0 kmh 29.63 in1003.4 mb - 0.00 in0.0 mm 0.00 in0.0 mm
06:30 PM 26.5°F-3.1°C 22.9°F-5.1°C 86% 3.5 mph N5.6 kmh N 6.9 mph11.1 kmh 29.63 in1003.4 mb - 0.00 in0.0 mm 0.00 in0.0 mm
07:00 PM 26.5°F-3.1°C 22.9°F-5.1°C 86% 3.5 mph N5.6 kmh N 4.6 mph7.4 kmh 29.63 in1003.4 mb - 0.00 in0.0 mm 0.00 in0.0 mm
07:30 PM 26.1°F-3.3°C 23.0°F-5.0°C 88% 8.1 mph NE13.0 kmh NE 11.5 mph18.5 kmh 29.63 in1003.4 mb - 0.00 in0.0 mm 0.00 in0.0 mm
08:00 PM 25.6°F-3.6°C 22.5°F-5.3°C 88% 6.9 mph N11.1 kmh N 9.2 mph14.8 kmh 29.64 in1003.7 mb - 0.00 in0.0 mm 0.00 in0.0 mm
08:30 PM 25.0°F-3.9°C 22.2°F-5.4°C 89% 3.5 mph N5.6 kmh N 4.6 mph7.4 kmh 29.64 in1003.7 mb - 0.00 in0.0 mm 0.00 in0.0 mm
09:00 PM 25.0°F-3.9°C 21.9°F-5.6°C 88% 6.9 mph N11.1 kmh N 9.2 mph14.8 kmh 29.65 in1004.1 mb - 0.00 in0.0 mm 0.00 in0.0 mm
09:30 PM 24.9°F-3.9°C 21.6°F-5.8°C 87% 3.5 mph N5.6 kmh N 5.8 mph9.3 kmh 29.66 in1004.4 mb - 0.00 in0.0 mm 0.00 in0.0 mm
10:00 PM 24.9°F-3.9°C 21.6°F-5.8°C 87% 4.6 mph N7.4 kmh N 5.8 mph9.3 kmh 29.66 in1004.4 mb - 0.00 in0.0 mm 0.00 in0.0 mm
10:30 PM 24.9°F-3.9°C 21.6°F-5.8°C 87% 8.1 mph NE13.0 kmh NE 10.4 mph16.7 kmh 29.67 in1004.7 mb - 0.00 in0.0 mm 0.00 in0.0 mm
11:00 PM 24.9°F-3.9°C 21.3°F-5.9°C 86% 3.5 mph N5.6 kmh N 4.6 mph7.4 kmh 29.67 in1004.7 mb - 0.00 in0.0 mm 0.00 in0.0 mm
11:30 PM 24.7°F-4.1°C 21.1°F-6.1°C 86% 4.6 mph N7.4 kmh N 9.2 mph14.8 kmh 29.68 in1005.1 mb - 0.00 in0.0 mm 0.00 in0.0 mm